createdAt,value
2017-02-27T00:00:21.687Z,925.44
2017-02-27T00:01:36.097Z,925.47
2017-02-27T00:02:49.854Z,925.49
2017-02-27T00:04:04.282Z,925.5
2017-02-27T00:05:18.688Z,925.52
2017-02-27T00:06:32.434Z,925.5
2017-02-27T00:07:46.846Z,925.57
2017-02-27T00:09:01.268Z,925.58
2017-02-27T00:10:15.660Z,925.61
2017-02-27T00:11:29.435Z,925.59
2017-02-27T00:12:43.186Z,925.64
2017-02-27T00:13:56.923Z,925.66
2017-02-27T00:15:11.357Z,925.65
2017-02-27T00:16:25.780Z,925.66
2017-02-27T00:17:40.235Z,925.68
2017-02-27T00:18:53.987Z,925.67
2017-02-27T00:20:08.397Z,925.69
2017-02-27T00:21:22.818Z,925.67
2017-02-27T00:22:37.187Z,925.67
2017-02-27T00:23:51.608Z,925.7
2017-02-27T00:25:05.347Z,925.69
2017-02-27T00:26:19.742Z,925.75
2017-02-27T00:27:34.105Z,925.77
2017-02-27T00:28:48.536Z,925.72
2017-02-27T00:30:02.266Z,925.79
2017-02-27T00:31:16.704Z,925.76
2017-02-27T00:32:29.826Z,925.76
2017-02-27T00:33:43.594Z,925.75
2017-02-27T00:34:57.975Z,925.76
2017-02-27T00:36:12.379Z,925.71
2017-02-27T00:37:26.796Z,925.77
2017-02-27T00:38:40.555Z,925.72
2017-02-27T00:39:54.956Z,925.75
2017-02-27T00:41:09.351Z,925.73
2017-02-27T00:42:23.095Z,925.72
2017-02-27T00:43:36.240Z,925.68
2017-02-27T00:44:50.016Z,925.68
2017-02-27T00:46:03.732Z,925.71
2017-02-27T00:47:18.184Z,925.72
2017-02-27T00:48:32.603Z,925.69
2017-02-27T00:49:46.976Z,925.66
2017-02-27T00:51:01.419Z,925.62
2017-02-27T00:52:15.824Z,925.57
2017-02-27T00:53:30.201Z,925.56
2017-02-27T00:54:44.615Z,925.51
2017-02-27T00:55:58.381Z,925.55
2017-02-27T00:57:12.808Z,925.53
2017-02-27T00:58:27.197Z,925.54
2017-02-27T00:59:40.292Z,925.56
2017-02-27T01:00:54.066Z,925.55
2017-02-27T01:02:08.458Z,925.56
2017-02-27T01:03:22.828Z,925.55
2017-02-27T01:04:36.569Z,925.54
2017-02-27T01:05:50.971Z,925.54
2017-02-27T01:07:05.327Z,925.54
2017-02-27T01:08:19.766Z,925.52
2017-02-27T01:09:34.191Z,925.55
2017-02-27T01:10:47.937Z,925.56
2017-02-27T01:12:02.315Z,925.59
2017-02-27T01:13:16.731Z,925.58
2017-02-27T01:14:30.513Z,925.59
2017-02-27T01:15:44.228Z,925.61
2017-02-27T01:16:57.332Z,925.55
2017-02-27T01:18:11.113Z,925.55
2017-02-27T01:19:25.546Z,925.58
2017-02-27T01:20:39.291Z,925.58
2017-02-27T01:21:53.024Z,925.59
2017-02-27T01:23:07.414Z,925.59
2017-02-27T01:24:21.833Z,925.58
2017-02-27T01:25:35.605Z,925.6
2017-02-27T01:26:50.027Z,925.57
2017-02-27T01:28:04.410Z,925.58
2017-02-27T01:29:18.779Z,925.54
2017-02-27T01:30:33.189Z,925.54
2017-02-27T01:31:47.549Z,925.52
2017-02-27T01:33:01.932Z,925.5
2017-02-27T01:34:16.358Z,925.46
2017-02-27T01:52:56.723Z,925.25
2017-02-27T01:54:10.506Z,925.31
2017-02-27T01:55:24.889Z,925.29
2017-02-27T01:56:39.246Z,925.27
2017-02-27T01:57:53.002Z,925.28
2017-02-27T01:59:06.769Z,925.29
2017-02-27T02:00:21.162Z,925.26
2017-02-27T02:01:34.955Z,925.32
2017-02-27T02:02:49.347Z,925.31
2017-02-27T02:04:03.698Z,925.31
2017-02-27T02:05:17.474Z,925.32
2017-02-27T02:06:31.907Z,925.37
2017-02-27T02:07:46.354Z,925.36
2017-02-27T02:09:00.763Z,925.36
2017-02-27T02:10:13.843Z,925.36
2017-02-27T02:11:26.978Z,925.39
2017-02-27T02:12:41.368Z,925.4
2017-02-27T02:13:55.735Z,925.4
2017-02-27T02:15:10.131Z,925.4
2017-02-27T02:16:23.868Z,925.43
2017-02-27T02:17:38.270Z,925.42
2017-02-27T02:18:52.697Z,925.44
2017-02-27T02:20:07.102Z,925.42
2017-02-27T02:21:21.457Z,925.41
2017-02-27T02:22:35.845Z,925.4
2017-02-27T02:23:49.626Z,925.37
2017-02-27T02:25:04.049Z,925.35
2017-02-27T02:26:18.442Z,925.35
2017-02-27T02:27:32.830Z,925.36
2017-02-27T02:28:47.242Z,925.37
2017-02-27T02:30:01.692Z,925.38
2017-02-27T02:31:15.458Z,925.37
2017-02-27T02:32:29.218Z,925.37
2017-02-27T02:33:42.960Z,925.32
2017-02-27T02:34:57.375Z,925.32
2017-02-27T02:36:11.802Z,925.31
2017-02-27T02:37:25.544Z,925.27
2017-02-27T02:38:39.946Z,925.26
2017-02-27T02:39:53.027Z,925.27
2017-02-27T02:41:06.750Z,925.25
2017-02-27T02:42:21.122Z,925.21
2017-02-27T02:43:35.549Z,925.22
2017-02-27T02:44:49.905Z,925.15
2017-02-27T02:46:04.323Z,925.16
2017-02-27T02:47:18.707Z,925.16
2017-02-27T02:48:33.154Z,925.17
2017-02-27T02:49:47.537Z,925.19
2017-02-27T02:51:01.927Z,925.16
2017-02-27T02:52:16.326Z,925.18
2017-02-27T02:53:30.704Z,925.16
2017-02-27T02:54:44.456Z,925.14
2017-02-27T02:55:58.871Z,925.11
2017-02-27T02:57:13.260Z,925.08
2017-02-27T02:58:27.636Z,925.06
2017-02-27T02:59:42.034Z,925.07
2017-02-27T03:00:56.425Z,925.01
2017-02-27T03:02:10.831Z,925.06
2017-02-27T03:03:25.204Z,925.02
2017-02-27T03:04:38.948Z,925.02
2017-02-27T03:05:53.324Z,925.01
2017-02-27T03:07:07.764Z,925
2017-02-27T03:08:22.126Z,924.98
2017-02-27T03:09:35.866Z,924.93
2017-02-27T03:10:49.603Z,924.89
2017-02-27T03:12:03.381Z,924.89
2017-02-27T03:13:16.480Z,924.82
2017-02-27T03:14:30.206Z,924.83
2017-02-27T03:15:44.572Z,924.83
2017-02-27T03:16:58.274Z,924.79
2017-02-27T03:18:12.702Z,924.8
2017-02-27T03:19:27.125Z,924.72
2017-02-27T03:20:41.528Z,924.7
2017-02-27T03:21:55.956Z,924.69
2017-02-27T03:23:09.113Z,924.7
2017-02-27T03:24:22.878Z,924.64
2017-02-27T03:25:37.275Z,924.65
2017-02-27T03:26:51.665Z,924.62
2017-02-27T03:28:05.417Z,924.59
2017-02-27T03:29:19.838Z,924.62
2017-02-27T03:30:34.237Z,924.55
2017-02-27T03:31:47.988Z,924.61
2017-02-27T03:33:02.415Z,924.57
2017-02-27T03:34:16.852Z,924.58
2017-02-27T03:35:31.230Z,924.57
2017-02-27T03:36:45.603Z,924.58
2017-02-27T03:37:59.330Z,924.5
2017-02-27T03:39:13.735Z,924.52
2017-02-27T03:40:28.105Z,924.51
2017-02-27T03:41:42.531Z,924.49
2017-02-27T03:42:56.919Z,924.49
2017-02-27T03:44:11.290Z,924.5
2017-02-27T03:45:25.025Z,924.49
2017-02-27T03:46:39.381Z,924.51
2017-02-27T03:47:53.765Z,924.47
2017-02-27T03:49:08.400Z,924.5
2017-02-27T03:50:22.170Z,924.48
2017-02-27T03:51:36.558Z,924.44
2017-02-27T03:52:50.973Z,924.41
2017-02-27T03:54:05.385Z,924.42
2017-02-27T03:55:19.799Z,924.41
2017-02-27T03:56:33.535Z,924.37
2017-02-27T03:57:47.931Z,924.39
2017-02-27T03:59:02.321Z,924.35
2017-02-27T04:00:16.750Z,924.36
2017-02-27T04:01:30.520Z,924.3
2017-02-27T04:02:44.926Z,924.3
2017-02-27T04:03:59.336Z,924.26
2017-02-27T04:05:13.800Z,924.28
2017-02-27T04:06:28.162Z,924.29
2017-02-27T04:07:42.554Z,924.23
2017-02-27T04:08:56.956Z,924.23
2017-02-27T04:10:21.619Z,924.23
2017-02-27T04:11:36.004Z,924.23
2017-02-27T04:12:50.401Z,924.23
2017-02-27T04:14:04.752Z,924.21
2017-02-27T04:15:19.227Z,924.22
2017-02-27T04:16:32.921Z,924.19
2017-02-27T04:17:46.662Z,924.19
2017-02-27T04:19:01.058Z,924.15
2017-02-27T04:20:15.450Z,924.15
2017-02-27T04:21:29.850Z,924.15
2017-02-27T04:22:44.239Z,924.1
2017-02-27T04:23:58.005Z,924.07
2017-02-27T04:25:12.391Z,924.01
2017-02-27T04:26:26.779Z,924
2017-02-27T04:27:41.143Z,924.02
2017-02-27T04:28:55.543Z,923.96
2017-02-27T04:30:08.619Z,923.96
2017-02-27T04:31:23.044Z,924
2017-02-27T04:32:37.436Z,923.97
2017-02-27T04:33:51.833Z,923.96
2017-02-27T04:35:05.619Z,923.97
2017-02-27T04:36:20.031Z,923.96
2017-02-27T04:37:34.404Z,923.92
2017-02-27T04:38:48.763Z,923.92
2017-02-27T04:40:03.171Z,923.93
2017-02-27T04:41:16.981Z,923.86
2017-02-27T04:42:30.098Z,923.87
2017-02-27T04:43:43.895Z,923.84
2017-02-27T04:44:58.279Z,923.84
2017-02-27T04:46:12.654Z,923.79
2017-02-27T04:47:27.037Z,923.78
2017-02-27T04:48:41.446Z,923.72
2017-02-27T04:49:55.812Z,923.72
2017-02-27T04:51:09.557Z,923.72
2017-02-27T04:52:23.955Z,923.67
2017-02-27T04:53:37.686Z,923.65
2017-02-27T04:54:52.142Z,923.61
2017-02-27T04:56:05.879Z,923.57
2017-02-27T04:57:20.243Z,923.57
2017-02-27T04:58:34.634Z,923.55
2017-02-27T04:59:48.979Z,923.54
2017-02-27T05:01:02.748Z,923.58
2017-02-27T05:02:17.148Z,923.55
2017-02-27T05:03:30.252Z,923.58
2017-02-27T05:04:44.651Z,923.55
2017-02-27T05:05:59.011Z,923.52
2017-02-27T05:07:13.491Z,923.53
2017-02-27T05:08:27.890Z,923.54
2017-02-27T05:09:41.634Z,923.54
2017-02-27T05:10:56.046Z,923.56
2017-02-27T05:12:10.429Z,923.57
2017-02-27T05:13:24.220Z,923.51
2017-02-27T05:14:38.646Z,923.52
2017-02-27T05:15:53.045Z,923.52
2017-02-27T05:17:07.450Z,923.48
2017-02-27T05:18:21.870Z,923.51
2017-02-27T05:19:35.642Z,923.46
2017-02-27T05:20:50.063Z,923.48
2017-02-27T05:22:03.862Z,923.49
2017-02-27T05:23:18.347Z,923.49
2017-02-27T05:24:32.734Z,923.53
2017-02-27T05:25:46.490Z,923.53
2017-02-27T05:27:00.258Z,923.58
2017-02-27T05:28:14.021Z,923.57
2017-02-27T05:29:28.501Z,923.58
2017-02-27T05:30:42.928Z,923.61
2017-02-27T05:31:57.350Z,923.65
2017-02-27T05:33:11.739Z,923.67
2017-02-27T05:34:26.145Z,923.66
2017-02-27T05:35:40.536Z,923.68
2017-02-27T05:36:54.296Z,923.66
2017-02-27T05:38:08.701Z,923.72
2017-02-27T05:39:23.120Z,923.75
2017-02-27T05:40:36.837Z,923.74
2017-02-27T05:41:51.299Z,923.76
2017-02-27T05:43:05.710Z,923.74
2017-02-27T05:44:20.128Z,923.71
2017-02-27T05:45:34.556Z,923.76
2017-02-27T05:46:48.960Z,923.7
2017-02-27T05:48:03.397Z,923.74
2017-02-27T05:49:17.813Z,923.73
2017-02-27T05:50:32.182Z,923.73
2017-02-27T05:51:46.630Z,923.75
2017-02-27T05:53:01.066Z,923.73
2017-02-27T05:54:14.809Z,923.69
2017-02-27T05:55:28.584Z,923.73
2017-02-27T05:56:41.768Z,923.71
2017-02-27T05:57:55.542Z,923.69
2017-02-27T05:59:10.007Z,923.68
2017-02-27T06:00:24.427Z,923.69
2017-02-27T06:01:38.840Z,923.7
2017-02-27T06:02:53.293Z,923.7
2017-02-27T06:04:07.693Z,923.68
2017-02-27T06:05:22.092Z,923.69
2017-02-27T06:06:36.461Z,923.63
2017-02-27T06:07:50.195Z,923.65
2017-02-27T06:09:04.642Z,923.67
2017-02-27T06:10:19.028Z,923.64
2017-02-27T06:11:33.430Z,923.64
2017-02-27T06:12:47.860Z,923.62
2017-02-27T06:14:02.306Z,923.6
2017-02-27T06:15:16.100Z,923.64
2017-02-27T06:16:30.480Z,923.64
2017-02-27T06:17:44.897Z,923.67
2017-02-27T06:18:58.638Z,923.67
2017-02-27T06:20:13.074Z,923.7
2017-02-27T06:21:27.478Z,923.71
2017-02-27T06:22:41.956Z,923.71
2017-02-27T06:23:55.771Z,923.7
2017-02-27T06:25:10.177Z,923.7
2017-02-27T06:26:24.557Z,923.71
2017-02-27T06:27:38.335Z,923.69
2017-02-27T06:28:52.753Z,923.67
2017-02-27T06:30:07.156Z,923.68
2017-02-27T06:31:21.568Z,923.67
2017-02-27T06:32:35.978Z,923.61
2017-02-27T06:33:50.424Z,923.61
2017-02-27T06:35:04.829Z,923.62
2017-02-27T06:36:19.260Z,923.61
2017-02-27T06:37:33.005Z,923.65
2017-02-27T06:38:46.766Z,923.65
2017-02-27T06:40:01.212Z,923.63
2017-02-27T06:41:15.691Z,923.63
2017-02-27T06:42:29.452Z,923.68
2017-02-27T06:43:43.871Z,923.67
2017-02-27T06:44:58.260Z,923.68
2017-02-27T06:46:12.650Z,923.65
2017-02-27T06:47:27.116Z,923.62
2017-02-27T06:48:41.577Z,923.64
2017-02-27T06:49:55.980Z,923.63
2017-02-27T06:51:09.766Z,923.63
2017-02-27T06:52:24.233Z,923.63
2017-02-27T06:53:38.648Z,923.59
2017-02-27T06:54:53.139Z,923.6
2017-02-27T06:56:06.893Z,923.59
2017-02-27T06:57:21.280Z,923.58
2017-02-27T06:58:35.679Z,923.56
2017-02-27T06:59:50.098Z,923.53
2017-02-27T07:01:03.873Z,923.54
2017-02-27T07:02:18.289Z,923.52
2017-02-27T07:03:31.471Z,923.53
2017-02-27T07:04:44.572Z,923.56
2017-02-27T07:05:58.958Z,923.55
2017-02-27T07:07:13.423Z,923.58
2017-02-27T07:08:26.545Z,923.62
2017-02-27T07:09:40.295Z,923.57
2017-02-27T07:10:54.714Z,923.56
2017-02-27T07:12:08.497Z,923.55
2017-02-27T07:13:21.581Z,923.55
2017-02-27T07:14:35.370Z,923.52
2017-02-27T07:15:49.136Z,923.53
2017-02-27T07:17:03.573Z,923.49
2017-02-27T07:18:17.970Z,923.52
2017-02-27T07:19:32.376Z,923.52
2017-02-27T07:20:46.806Z,923.53
2017-02-27T07:22:01.263Z,923.48
2017-02-27T07:23:16.015Z,923.5
2017-02-27T07:24:30.462Z,923.48
2017-02-27T07:25:44.253Z,923.47
2017-02-27T07:26:58.642Z,923.47
2017-02-27T07:28:13.029Z,923.47
2017-02-27T07:29:27.466Z,923.46
2017-02-27T07:30:41.878Z,923.48
2017-02-27T07:31:55.617Z,923.5
2017-02-27T07:33:09.973Z,923.52
2017-02-27T07:34:24.386Z,923.51
2017-02-27T07:35:38.160Z,923.54
2017-02-27T07:36:52.557Z,923.51
2017-02-27T07:38:06.984Z,923.51
2017-02-27T07:39:21.384Z,923.54
2017-02-27T07:40:35.792Z,923.51
2017-02-27T07:41:50.193Z,923.5
2017-02-27T07:43:04.003Z,923.53
2017-02-27T07:44:18.427Z,923.54
2017-02-27T07:45:32.835Z,923.54
2017-02-27T07:46:47.219Z,923.57
2017-02-27T07:48:01.634Z,923.57
2017-02-27T07:49:16.070Z,923.56
2017-02-27T07:50:30.483Z,923.54
2017-02-27T07:51:44.893Z,923.5
2017-02-27T07:52:59.310Z,923.48
2017-02-27T07:54:13.698Z,923.52
2017-02-27T07:55:28.111Z,923.54
2017-02-27T07:56:42.490Z,923.56
2017-02-27T07:57:56.290Z,923.57
2017-02-27T07:59:10.709Z,923.57
2017-02-27T08:00:25.128Z,923.54
2017-02-27T08:01:39.543Z,923.5
2017-02-27T08:02:54.013Z,923.51
2017-02-27T08:04:08.378Z,923.46
2017-02-27T08:05:22.866Z,923.4
2017-02-27T08:06:37.309Z,923.42
2017-02-27T08:07:51.735Z,923.46
2017-02-27T08:09:05.509Z,923.51
2017-02-27T08:10:19.292Z,923.49
2017-02-27T08:11:33.668Z,923.52
2017-02-27T08:12:48.049Z,923.5
2017-02-27T08:14:02.441Z,923.53
2017-02-27T08:15:16.188Z,923.52
2017-02-27T08:16:30.630Z,923.52
2017-02-27T08:17:45.103Z,923.52
2017-02-27T08:18:59.563Z,923.49
2017-02-27T08:20:13.968Z,923.49
2017-02-27T08:21:27.725Z,923.49
2017-02-27T08:22:41.530Z,923.47
2017-02-27T08:23:55.956Z,923.49
2017-02-27T08:25:10.354Z,923.48
2017-02-27T08:26:24.744Z,923.43
2017-02-27T08:27:39.153Z,923.48
2017-02-27T08:28:53.563Z,923.45
2017-02-27T08:30:07.346Z,923.47
2017-02-27T08:31:21.775Z,923.46
2017-02-27T08:32:35.544Z,923.49
2017-02-27T08:33:49.925Z,923.46
2017-02-27T08:35:04.388Z,923.46
2017-02-27T08:36:18.155Z,923.44
2017-02-27T08:37:32.535Z,923.47
2017-02-27T08:38:46.264Z,923.47
2017-02-27T08:40:00.014Z,923.48
2017-02-27T08:41:13.799Z,923.52
2017-02-27T08:42:28.210Z,923.52
2017-02-27T08:43:42.619Z,923.55
2017-02-27T08:44:57.037Z,923.53
2017-02-27T08:46:10.784Z,923.56
2017-02-27T08:47:25.225Z,923.58
2017-02-27T08:48:39.629Z,923.55
2017-02-27T08:49:54.074Z,923.58
2017-02-27T08:51:08.479Z,923.62
2017-02-27T08:52:22.842Z,923.59
2017-02-27T08:53:37.261Z,923.59
2017-02-27T08:54:51.635Z,923.55
2017-02-27T08:56:06.044Z,923.55
2017-02-27T08:57:20.450Z,923.56
2017-02-27T08:58:34.880Z,923.53
2017-02-27T08:59:48.625Z,923.55
2017-02-27T09:01:02.372Z,923.54
2017-02-27T09:02:15.500Z,923.55
2017-02-27T09:03:29.915Z,923.54
2017-02-27T09:04:43.036Z,923.58
2017-02-27T09:05:57.487Z,923.56
2017-02-27T09:07:11.913Z,923.59
2017-02-27T09:08:26.287Z,923.58
2017-02-27T09:09:40.688Z,923.6
2017-02-27T09:10:54.481Z,923.57
2017-02-27T09:12:08.264Z,923.59
2017-02-27T09:13:22.692Z,923.57
2017-02-27T09:14:37.105Z,923.61
2017-02-27T09:15:51.492Z,923.59
2017-02-27T09:17:05.880Z,923.64
2017-02-27T09:18:20.271Z,923.68
2017-02-27T09:19:34.683Z,923.66
2017-02-27T09:20:49.069Z,923.69
2017-02-27T09:22:03.464Z,923.69
2017-02-27T09:23:16.576Z,923.69
2017-02-27T09:24:30.979Z,923.69
2017-02-27T09:25:45.369Z,923.68
2017-02-27T09:26:59.719Z,923.7
2017-02-27T09:28:13.472Z,923.74
2017-02-27T09:29:27.843Z,923.76
2017-02-27T09:30:42.315Z,923.76
2017-02-27T09:31:56.691Z,923.8
2017-02-27T09:33:10.480Z,923.85
2017-02-27T09:34:24.862Z,923.84
2017-02-27T09:35:39.242Z,923.88
2017-02-27T09:36:53.617Z,923.88
2017-02-27T09:38:08.060Z,923.9
2017-02-27T09:39:22.469Z,923.89
2017-02-27T09:40:36.866Z,923.89
2017-02-27T09:41:51.302Z,923.93
2017-02-27T09:43:04.419Z,923.97
2017-02-27T09:44:18.797Z,924.01
2017-02-27T09:45:32.499Z,924.02
2017-02-27T09:46:46.879Z,924.06
2017-02-27T09:48:01.290Z,924.08
2017-02-27T09:49:15.682Z,924.16
2017-02-27T09:50:30.111Z,924.2
2017-02-27T09:51:42.641Z,924.23
2017-02-27T09:52:57.047Z,924.31
2017-02-27T09:54:11.480Z,924.35
2017-02-27T09:55:25.897Z,924.37
2017-02-27T09:56:40.753Z,924.37
2017-02-27T09:57:55.214Z,924.39
2017-02-27T09:59:09.576Z,924.39
2017-02-27T10:00:23.977Z,924.4
2017-02-27T10:01:38.369Z,924.42
2017-02-27T10:02:52.769Z,924.39
2017-02-27T10:04:07.147Z,924.39
2017-02-27T10:05:21.535Z,924.44
2017-02-27T10:06:35.910Z,924.49
2017-02-27T10:07:50.311Z,924.53
2017-02-27T10:09:04.737Z,924.5
2017-02-27T10:10:19.138Z,924.53
2017-02-27T10:11:32.876Z,924.51
2017-02-27T10:12:47.266Z,924.51
2017-02-27T10:14:01.720Z,924.52
2017-02-27T10:15:16.146Z,924.55
2017-02-27T10:16:29.949Z,924.58
2017-02-27T10:17:43.663Z,924.58
2017-02-27T10:18:58.041Z,924.58
2017-02-27T10:20:12.425Z,924.62
2017-02-27T10:21:26.810Z,924.63
2017-02-27T10:22:41.275Z,924.64
2017-02-27T10:23:55.666Z,924.68
2017-02-27T10:25:10.045Z,924.72
2017-02-27T10:26:24.445Z,924.7
2017-02-27T10:27:38.824Z,924.69
2017-02-27T10:28:53.186Z,924.7
2017-02-27T10:30:07.570Z,924.74
2017-02-27T10:31:21.998Z,924.76
2017-02-27T10:32:36.393Z,924.75
2017-02-27T10:33:50.795Z,924.72
2017-02-27T10:35:05.225Z,924.73
2017-02-27T10:36:19.675Z,924.72
2017-02-27T10:37:34.073Z,924.69
2017-02-27T10:38:48.438Z,924.73
2017-02-27T10:40:02.844Z,924.71
2017-02-27T10:41:17.292Z,924.71
2017-02-27T10:42:31.736Z,924.72
2017-02-27T10:43:46.155Z,924.68
2017-02-27T10:45:00.544Z,924.7
2017-02-27T10:46:14.966Z,924.7
2017-02-27T10:47:29.653Z,924.72
2017-02-27T10:48:43.404Z,924.71
2017-02-27T10:49:57.840Z,924.72
2017-02-27T10:51:12.231Z,924.69
2017-02-27T10:52:26.625Z,924.67
2017-02-27T10:53:41.023Z,924.65
2017-02-27T10:54:55.452Z,924.67
2017-02-27T10:56:09.181Z,924.6
2017-02-27T10:57:23.580Z,924.57
2017-02-27T10:58:36.718Z,924.6
2017-02-27T10:59:51.103Z,924.61
2017-02-27T11:01:05.489Z,924.64
2017-02-27T11:02:19.912Z,924.64
2017-02-27T11:03:33.649Z,924.63
2017-02-27T11:04:48.063Z,924.68
2017-02-27T11:06:02.477Z,924.7
2017-02-27T11:07:16.215Z,924.73
2017-02-27T11:08:30.629Z,924.72
2017-02-27T11:09:45.033Z,924.68
2017-02-27T11:10:59.401Z,924.72
2017-02-27T11:12:13.898Z,924.66
2017-02-27T11:13:28.351Z,924.66
2017-02-27T11:14:42.122Z,924.67
2017-02-27T11:15:56.512Z,924.6
2017-02-27T11:17:10.254Z,924.62
2017-02-27T11:18:24.671Z,924.6
2017-02-27T11:19:39.153Z,924.59
2017-02-27T11:20:53.601Z,924.54
2017-02-27T11:22:08.032Z,924.59
2017-02-27T11:23:22.447Z,924.65
2017-02-27T11:24:36.852Z,924.64
2017-02-27T11:25:51.269Z,924.62
2017-02-27T11:27:05.049Z,924.69
2017-02-27T11:28:18.797Z,924.72
2017-02-27T11:29:33.197Z,924.73
2017-02-27T11:30:47.600Z,924.72
2017-02-27T11:32:02.022Z,924.77
2017-02-27T11:33:16.493Z,924.79
2017-02-27T11:34:30.913Z,924.84
2017-02-27T11:35:45.305Z,924.82
2017-02-27T11:36:59.671Z,924.78
2017-02-27T11:38:14.037Z,924.81
2017-02-27T11:39:28.429Z,924.76
2017-02-27T11:40:42.820Z,924.7
2017-02-27T11:41:57.228Z,924.71
2017-02-27T11:43:11.631Z,924.66
2017-02-27T11:44:25.361Z,924.66
2017-02-27T11:45:39.792Z,924.68
2017-02-27T11:46:54.239Z,924.68
2017-02-27T11:48:08.638Z,924.65
2017-02-27T11:49:23.051Z,924.7
2017-02-27T11:50:36.803Z,924.71
2017-02-27T11:51:51.239Z,924.72
2017-02-27T11:53:05.641Z,924.74
2017-02-27T11:54:20.063Z,924.77
2017-02-27T11:55:33.170Z,924.72
2017-02-27T11:56:47.578Z,924.79
2017-02-27T11:58:01.994Z,924.8
2017-02-27T11:59:15.769Z,924.86
2017-02-27T12:00:29.549Z,924.86
2017-02-27T12:01:43.961Z,924.87
2017-02-27T12:02:58.372Z,924.85
2017-02-27T12:04:12.808Z,924.84
2017-02-27T12:05:27.200Z,924.88
2017-02-27T12:06:41.013Z,924.92
2017-02-27T12:07:55.443Z,924.93
2017-02-27T12:09:09.182Z,924.94
2017-02-27T12:10:22.921Z,925.01
2017-02-27T12:11:36.683Z,924.96
2017-02-27T12:12:51.069Z,925.02
2017-02-27T12:14:05.470Z,925.04
2017-02-27T12:15:19.888Z,925.04
2017-02-27T12:16:34.273Z,925.1
2017-02-27T12:17:48.681Z,925.13
2017-02-27T12:19:02.444Z,925.22
2017-02-27T12:20:16.839Z,925.09
2017-02-27T12:21:31.225Z,925.05
2017-02-27T12:22:45.026Z,925.04
2017-02-27T12:23:59.439Z,924.97
2017-02-27T12:25:13.204Z,925.02
2017-02-27T12:26:26.989Z,925.03
2017-02-27T12:27:40.747Z,925.06
2017-02-27T12:28:55.140Z,925.06
2017-02-27T12:30:09.561Z,925.1
2017-02-27T12:31:24.033Z,925.09
2017-02-27T12:32:37.789Z,925.15
2017-02-27T12:33:51.534Z,925.11
2017-02-27T12:35:05.950Z,925.13
2017-02-27T12:36:20.361Z,925.09
2017-02-27T12:37:34.793Z,925.04
2017-02-27T12:38:48.542Z,925.06
2017-02-27T12:40:02.927Z,925.09
2017-02-27T12:41:16.052Z,925.12
2017-02-27T12:42:30.442Z,925.05
2017-02-27T12:43:44.226Z,925.11
2017-02-27T12:44:58.653Z,925.15
2017-02-27T12:46:13.041Z,925.15
2017-02-27T12:47:26.815Z,925.15
2017-02-27T12:48:41.212Z,925.09
2017-02-27T12:49:55.624Z,925.12
2017-02-27T12:51:09.358Z,925.09
2017-02-27T12:52:23.089Z,925.12
2017-02-27T12:53:35.614Z,925.11
2017-02-27T12:54:49.362Z,925.14
2017-02-27T12:56:03.810Z,925.13
2017-02-27T12:57:17.587Z,925.18
2017-02-27T12:58:31.369Z,925.17
2017-02-27T12:59:45.169Z,925.14
2017-02-27T13:00:59.549Z,925.15
2017-02-27T13:02:13.988Z,925.1
2017-02-27T13:03:27.731Z,925.17
2017-02-27T13:04:42.163Z,925.18
2017-02-27T13:05:55.886Z,925.16
2017-02-27T13:07:10.296Z,925.17
2017-02-27T13:08:24.675Z,925.18
2017-02-27T13:09:39.096Z,925.2
2017-02-27T13:10:52.843Z,925.16
2017-02-27T13:12:31.741Z,925.15
2017-02-27T13:13:45.503Z,925.1
2017-02-27T13:14:59.898Z,925.14
2017-02-27T13:16:13.671Z,925.11
2017-02-27T13:17:28.100Z,925.1
2017-02-27T13:18:42.516Z,925.11
2017-02-27T13:19:56.909Z,925.08
2017-02-27T13:21:11.321Z,925.07
2017-02-27T13:22:25.084Z,925.05
2017-02-27T13:23:39.485Z,925.04
2017-02-27T13:24:53.306Z,925.13
2017-02-27T13:26:07.075Z,925.05
2017-02-27T13:27:21.502Z,925.13
2017-02-27T13:28:35.955Z,925.07
2017-02-27T13:29:50.405Z,925.08
2017-02-27T13:31:04.182Z,925.12
2017-02-27T13:32:17.974Z,925.05
2017-02-27T13:33:31.759Z,925.04
2017-02-27T13:34:45.561Z,925.05
2017-02-27T13:35:59.977Z,924.97
2017-02-27T13:37:14.417Z,924.99
2017-02-27T13:38:28.788Z,925
2017-02-27T13:39:43.144Z,924.95
2017-02-27T13:40:57.545Z,924.96
2017-02-27T13:42:11.966Z,924.98
2017-02-27T13:43:24.454Z,924.97
2017-02-27T13:44:38.892Z,924.98
2017-02-27T13:45:53.308Z,924.88
2017-02-27T13:47:07.061Z,924.92
2017-02-27T13:48:20.794Z,924.88
2017-02-27T13:49:35.209Z,924.91
2017-02-27T13:50:48.995Z,924.9
2017-02-27T13:52:03.408Z,924.92
2017-02-27T13:53:17.765Z,924.88
2017-02-27T13:54:32.208Z,924.89
2017-02-27T13:55:45.966Z,924.92
2017-02-27T13:57:00.333Z,924.86
2017-02-27T13:58:14.752Z,924.92
2017-02-27T13:59:29.162Z,924.84
2017-02-27T14:00:43.577Z,924.85
2017-02-27T14:01:58.008Z,924.83
2017-02-27T14:03:12.423Z,924.84
2017-02-27T14:04:26.820Z,924.85
2017-02-27T14:05:41.209Z,924.79
2017-02-27T14:06:55.647Z,924.89
2017-02-27T14:08:09.393Z,924.78
2017-02-27T14:09:23.809Z,924.78
2017-02-27T14:10:37.588Z,924.78
2017-02-27T14:11:51.980Z,924.72
2017-02-27T14:13:06.415Z,924.68
2017-02-27T14:14:20.877Z,924.68
2017-02-27T14:15:35.272Z,924.69
2017-02-27T14:16:49.681Z,924.65
2017-02-27T14:18:03.430Z,924.67
2017-02-27T14:19:17.841Z,924.64
2017-02-27T14:20:31.576Z,924.62
2017-02-27T14:21:46.001Z,924.61
2017-02-27T14:23:00.381Z,924.62
2017-02-27T14:24:14.778Z,924.64
2017-02-27T14:25:29.196Z,924.6
2017-02-27T14:26:43.648Z,924.58
2017-02-27T14:27:58.074Z,924.52
2017-02-27T14:29:12.535Z,924.56
2017-02-27T14:30:26.950Z,924.51
2017-02-27T14:31:41.386Z,924.56
2017-02-27T14:32:55.195Z,924.53
2017-02-27T14:34:09.589Z,924.51
2017-02-27T14:35:23.995Z,924.46
2017-02-27T14:36:38.398Z,924.5
2017-02-27T14:37:52.779Z,924.45
2017-02-27T14:39:07.181Z,924.43
2017-02-27T14:40:20.964Z,924.42
2017-02-27T14:41:35.396Z,924.43
2017-02-27T14:42:49.209Z,924.49
2017-02-27T14:44:03.666Z,924.36
2017-02-27T14:45:18.124Z,924.38
2017-02-27T14:46:32.585Z,924.32
2017-02-27T14:47:47.054Z,924.34
2017-02-27T14:49:01.531Z,924.34
2017-02-27T14:50:16.020Z,924.24
2017-02-27T14:51:30.489Z,924.31
2017-02-27T14:52:44.936Z,924.26
2017-02-27T14:53:59.403Z,924.29
2017-02-27T14:55:13.856Z,924.29
2017-02-27T14:56:28.351Z,924.26
2017-02-27T14:57:42.824Z,924.27
2017-02-27T14:58:56.631Z,924.21
2017-02-27T15:00:11.122Z,924.26
2017-02-27T15:01:24.956Z,924.3
2017-02-27T15:02:39.418Z,924.18
2017-02-27T15:03:53.900Z,924.2
2017-02-27T15:05:07.728Z,924.23
2017-02-27T15:06:21.539Z,924.16
2017-02-27T15:07:35.992Z,924.18
2017-02-27T15:08:50.450Z,924.19
2017-02-27T15:10:04.905Z,924.14
2017-02-27T15:11:18.747Z,924.13
2017-02-27T15:12:33.214Z,924.04
2017-02-27T15:13:47.701Z,924.1
2017-02-27T15:15:02.188Z,924
2017-02-27T15:16:16.633Z,924.02
2017-02-27T15:17:31.079Z,923.97
2017-02-27T15:18:44.900Z,924.02
2017-02-27T15:19:59.368Z,924.01
2017-02-27T15:21:13.193Z,924.07
2017-02-27T15:22:27.005Z,924.08
2017-02-27T15:23:41.486Z,924.04
2017-02-27T15:24:55.957Z,924.02
2017-02-27T15:26:10.416Z,924.02
2017-02-27T15:27:24.883Z,923.99
2017-02-27T15:28:39.347Z,923.98
2017-02-27T15:29:53.162Z,923.95
2017-02-27T15:31:07.026Z,923.92
2017-02-27T15:32:21.513Z,923.88
2017-02-27T15:33:35.945Z,923.92
2017-02-27T15:34:50.408Z,923.86
2017-02-27T15:36:04.919Z,923.82
2017-02-27T15:37:19.408Z,923.78
2017-02-27T15:38:33.864Z,923.76
2017-02-27T15:39:48.321Z,923.69
2017-02-27T15:41:02.142Z,923.66
2017-02-27T15:42:16.639Z,923.55
2017-02-27T15:43:31.139Z,923.64
2017-02-27T15:44:45.604Z,923.62
2017-02-27T15:46:00.095Z,923.62